createdAt,value
2019-04-22T00:02:00.518Z,16.82
2019-04-22T00:04:42.167Z,16.72
2019-04-22T00:07:22.740Z,16.66
2019-04-22T00:09:59.471Z,16.75
2019-04-22T00:12:27.588Z,16.75
2019-04-22T00:14:52.487Z,16.75
2019-04-22T00:17:38.703Z,16.72
2019-04-22T00:20:06.122Z,16.57
2019-04-22T00:22:35.136Z,16.46
2019-04-22T00:25:10.466Z,16.40
2019-04-22T00:27:40.724Z,16.41
2019-04-22T00:30:15.504Z,16.41
2019-04-22T00:32:50.009Z,16.32
2019-04-22T00:35:18.173Z,16.30
2019-04-22T00:37:56.996Z,16.21
2019-04-22T00:40:28.181Z,16.09
2019-04-22T00:45:36.795Z,16.04
2019-04-22T00:48:00.888Z,15.98
2019-04-22T00:50:37.463Z,15.95
2019-04-22T00:53:11.950Z,15.98
2019-04-22T00:55:38.095Z,15.90
2019-04-22T00:58:14.201Z,15.89
2019-04-22T01:00:44.412Z,16.04
2019-04-22T01:03:21.478Z,16.10
2019-04-22T01:05:46.855Z,16.11
2019-04-22T01:08:26.696Z,16.14
2019-04-22T01:10:57.019Z,16.15
2019-04-22T01:13:24.760Z,15.93
2019-04-22T01:16:03.195Z,15.78
2019-04-22T01:18:25.081Z,15.52
2019-04-22T01:23:28.192Z,15.35
2019-04-22T01:25:57.058Z,15.38
2019-04-22T01:28:23.915Z,15.39
2019-04-22T01:30:51.439Z,15.37
2019-04-22T01:33:23.261Z,15.46
2019-04-22T01:36:02.728Z,15.42
2019-04-22T01:38:36.692Z,15.40
2019-04-22T01:41:16.475Z,15.45
2019-04-22T01:43:51.830Z,15.45
2019-04-22T01:46:16.614Z,15.24
2019-04-22T01:48:57.789Z,15.07
2019-04-22T01:51:28.264Z,15.07
2019-04-22T01:53:58.519Z,14.93
2019-04-22T01:56:28.616Z,14.99
2019-04-22T01:58:50.329Z,14.92
2019-04-22T02:01:30.362Z,14.87
2019-04-22T02:04:02.717Z,15.00
2019-04-22T02:06:37.589Z,14.97
2019-04-22T02:09:10.655Z,14.98
2019-04-22T02:11:39.122Z,15.09
2019-04-22T02:14:09.209Z,15.11
2019-04-22T02:19:11.243Z,14.82
2019-04-22T02:21:35.768Z,14.90
2019-04-22T02:24:15.954Z,14.94
2019-04-22T02:26:41.699Z,15.00
2019-04-22T02:29:17.186Z,15.03
2019-04-22T02:31:55.874Z,15.09
2019-04-22T02:34:24.062Z,14.99
2019-04-22T02:36:54.336Z,15.03
2019-04-22T02:41:58.596Z,14.74
2019-04-22T02:44:28.782Z,14.58
2019-04-22T02:49:29.197Z,14.50
2019-04-22T02:52:06.406Z,14.60
2019-04-22T02:57:18.805Z,14.56
2019-04-22T02:59:43.283Z,14.42
2019-04-22T03:02:14.584Z,14.33
2019-04-22T03:04:37.409Z,14.34
2019-04-22T03:07:03.336Z,14.39
2019-04-22T03:09:38.350Z,14.47
2019-04-22T03:12:22.002Z,14.53
2019-04-22T03:17:25.540Z,14.15
2019-04-22T03:19:58.767Z,13.96
2019-04-22T03:27:37.109Z,13.96
2019-04-22T03:30:45.582Z,13.79
2019-04-22T03:37:50.358Z,13.50
2019-04-22T03:42:55.745Z,13.85
2019-04-22T03:48:01.912Z,13.61
2019-04-22T03:50:25.367Z,13.59
2019-04-22T03:53:05.924Z,13.62
2019-04-22T03:57:57.193Z,13.57
2019-04-22T04:08:15.129Z,13.22
2019-04-22T04:10:40.016Z,13.31
2019-04-22T04:13:21.103Z,13.30
2019-04-22T04:15:36.459Z,13.26
2019-04-22T04:18:13.303Z,13.26
2019-04-22T04:26:32.466Z,13.36
2019-04-22T04:31:02.008Z,13.50
2019-04-22T04:33:35.972Z,13.44
2019-04-22T04:36:14.624Z,13.22
2019-04-22T04:38:34.080Z,13.07
2019-04-22T04:41:06.278Z,13.06
2019-04-22T04:43:42.069Z,13.26
2019-04-22T04:46:09.388Z,13.38
2019-04-22T04:51:15.962Z,13.43
2019-04-22T04:53:53.096Z,13.49
2019-04-22T04:56:27.914Z,13.57
2019-04-22T04:58:55.841Z,13.51
2019-04-22T05:01:35.432Z,13.41
2019-04-22T05:03:59.401Z,13.40
2019-04-22T05:06:24.261Z,13.58
2019-04-22T05:11:24.946Z,13.68
2019-04-22T05:18:59.207Z,14.06
2019-04-22T05:21:33.079Z,14.17
2019-04-22T05:24:00.932Z,14.36
2019-04-22T05:26:30.997Z,14.69
2019-04-22T05:29:02.640Z,14.76
2019-04-22T05:31:32.614Z,14.94
2019-04-22T05:33:56.368Z,15.10
2019-04-22T05:36:30.017Z,15.25
2019-04-22T05:39:00.186Z,15.36
2019-04-22T05:41:36.452Z,15.50
2019-04-22T05:44:02.789Z,16.01
2019-04-22T05:46:34.777Z,16.05
2019-04-22T05:49:07.070Z,16.26
2019-04-22T05:51:42.017Z,16.43
2019-04-22T05:59:10.387Z,16.27
2019-04-22T06:01:51.775Z,16.11
2019-04-22T06:04:16.790Z,16.12
2019-04-22T06:06:51.624Z,16.32
2019-04-22T06:11:48.244Z,16.39
2019-04-22T06:14:20.397Z,16.38
2019-04-22T06:17:01.802Z,16.21
2019-04-22T06:19:24.499Z,16.01
2019-04-22T06:21:58.025Z,16.13
2019-04-22T06:24:50.720Z,16.24
2019-04-22T06:27:08.302Z,16.22
2019-04-22T06:29:30.135Z,16.25
2019-04-22T06:32:26.536Z,16.33
2019-04-22T06:37:13.034Z,16.60
2019-04-22T06:39:40.208Z,16.82
2019-04-22T06:42:13.418Z,16.83
2019-04-22T06:44:45.732Z,16.87
2019-04-22T06:47:28.674Z,16.96
2019-04-22T06:49:52.569Z,17.12
2019-04-22T06:52:17.740Z,17.27
2019-04-22T06:54:54.530Z,17.33
2019-04-22T06:57:19.465Z,17.50
2019-04-22T07:00:14.260Z,17.61
2019-04-22T07:02:33.809Z,17.57
2019-04-22T07:04:59.586Z,17.65
2019-04-22T07:07:25.182Z,17.70
2019-04-22T07:10:11.517Z,17.72
2019-04-22T07:12:30.474Z,17.99
2019-04-22T07:15:01.696Z,18.04
2019-04-22T07:17:39.431Z,18.24
2019-04-22T07:20:04.169Z,18.09
2019-04-22T07:22:38.919Z,18.25
2019-04-22T07:25:06.176Z,18.27
2019-04-22T07:27:44.127Z,18.38
2019-04-22T07:30:17.364Z,18.51
2019-04-22T07:33:04.819Z,18.65
2019-04-22T07:35:25.212Z,18.88
2019-04-22T07:37:47.093Z,19.00
2019-04-22T07:40:17.096Z,19.11
2019-04-22T07:42:52.098Z,19.16
2019-04-22T07:45:25.501Z,19.14
2019-04-22T07:50:37.427Z,19.28
2019-04-22T07:52:51.375Z,19.26
2019-04-22T07:55:27.241Z,19.35
2019-04-22T07:57:59.401Z,19.65
2019-04-22T08:00:34.087Z,19.76
2019-04-22T08:05:44.327Z,19.90
2019-04-22T08:08:13.050Z,20.00
2019-04-22T08:13:22.973Z,19.55
2019-04-22T08:18:17.490Z,19.83
2019-04-22T08:20:56.612Z,20.20
2019-04-22T08:23:23.754Z,20.26
2019-04-22T08:25:55.445Z,20.38
2019-04-22T08:28:31.747Z,20.43
2019-04-22T08:31:01.907Z,20.68
2019-04-22T08:33:38.191Z,20.78
2019-04-22T08:36:11.946Z,20.76
2019-04-22T08:38:46.955Z,20.90
2019-04-22T08:41:17.892Z,20.95
2019-04-22T08:43:55.865Z,21.05
2019-04-22T08:46:25.243Z,21.28
2019-04-22T08:48:52.985Z,21.30
2019-04-22T08:56:33.731Z,21.66
2019-04-22T08:59:07.061Z,21.90
2019-04-22T09:01:29.618Z,22.05
2019-04-22T09:04:00.605Z,22.07
2019-04-22T09:06:39.988Z,22.28
2019-04-22T09:09:02.083Z,22.27
2019-04-22T09:11:41.788Z,22.46
2019-04-22T09:16:37.365Z,22.54
2019-04-22T09:19:10.756Z,22.63
2019-04-22T09:21:43.346Z,22.57
2019-04-22T09:24:10.702Z,22.72
2019-04-22T09:26:44.502Z,22.83
2019-04-22T09:29:23.577Z,22.90
2019-04-22T09:31:49.769Z,22.99
2019-04-22T09:34:18.574Z,23.00
2019-04-22T09:36:50.265Z,23.21
2019-04-22T09:39:28.274Z,23.25
2019-04-22T09:41:52.111Z,23.34
2019-04-22T09:44:28.151Z,23.48
2019-04-22T09:46:51.999Z,23.51
2019-04-22T09:49:26.715Z,23.68
2019-04-22T09:52:01.473Z,23.68
2019-04-22T09:54:38.714Z,23.71
2019-04-22T09:57:01.584Z,23.75
2019-04-22T09:59:36.786Z,23.86
2019-04-22T10:02:19.728Z,23.84
2019-04-22T10:04:39.505Z,23.92
2019-04-22T10:07:13.068Z,23.92
2019-04-22T10:12:12.236Z,24.02
2019-04-22T10:14:45.121Z,24.10
2019-04-22T10:17:15.607Z,24.06
2019-04-22T10:19:41.062Z,24.00
2019-04-22T10:22:20.010Z,24.09
2019-04-22T10:24:45.388Z,24.17
2019-04-22T10:27:24.343Z,24.22
2019-04-22T10:29:54.174Z,24.23
2019-04-22T10:32:20.636Z,24.23
2019-04-22T10:34:38.772Z,24.17
2019-04-22T10:37:05.697Z,24.22
2019-04-22T10:39:43.861Z,24.33
2019-04-22T10:42:07.167Z,24.24
2019-04-22T10:44:37.375Z,24.33
2019-04-22T10:47:07.207Z,24.46
2019-04-22T10:49:38.236Z,24.43
2019-04-22T10:52:08.739Z,24.41
2019-04-22T10:54:38.647Z,24.41
2019-04-22T10:57:08.658Z,24.38
2019-04-22T10:59:38.561Z,24.33
2019-04-22T11:02:09.697Z,24.27
2019-04-22T11:04:40.436Z,24.32
2019-04-22T11:07:12.772Z,24.53
2019-04-22T11:09:51.689Z,24.49
2019-04-22T11:12:17.646Z,24.64
2019-04-22T11:14:45.515Z,24.57
2019-04-22T11:17:17.729Z,24.31
2019-04-22T11:19:47.945Z,24.27
2019-04-22T11:22:23.921Z,24.39
2019-04-22T11:24:50.692Z,24.53
2019-04-22T11:27:21.181Z,24.38
2019-04-22T11:29:50.907Z,24.46
2019-04-22T11:32:20.739Z,24.36
2019-04-22T11:34:51.213Z,24.57
2019-04-22T11:37:21.045Z,24.56
2019-04-22T11:40:04.875Z,24.55
2019-04-22T11:42:23.863Z,24.49
2019-04-22T11:44:55.127Z,24.55
2019-04-22T11:47:25.551Z,24.66
2019-04-22T11:49:55.556Z,24.69
2019-04-22T11:52:26.770Z,24.68
2019-04-22T11:54:57.008Z,24.71
2019-04-22T11:57:26.754Z,24.66
2019-04-22T11:59:56.619Z,24.71
2019-04-22T12:02:29.187Z,24.71
2019-04-22T12:04:58.972Z,24.78
2019-04-22T12:07:31.723Z,24.93
2019-04-22T12:10:13.271Z,25.01
2019-04-22T12:12:32.077Z,24.88
2019-04-22T12:15:02.039Z,25.02
2019-04-22T12:17:32.091Z,25.00
2019-04-22T12:20:05.063Z,25.06
2019-04-22T12:22:33.908Z,25.03
2019-04-22T12:25:10.565Z,25.05
2019-04-22T12:27:41.267Z,25.12
2019-04-22T12:30:19.584Z,25.12
2019-04-22T12:32:52.696Z,25.12
2019-04-22T12:35:24.203Z,25.14
2019-04-22T12:37:59.760Z,25.13
2019-04-22T12:40:37.268Z,25.36
2019-04-22T12:42:59.796Z,25.43
2019-04-22T12:45:30.117Z,25.38
2019-04-22T12:48:00.124Z,25.38
2019-04-22T12:50:34.907Z,25.51
2019-04-22T12:53:08.439Z,25.59
2019-04-22T12:55:34.361Z,25.75
2019-04-22T12:58:05.426Z,25.95
2019-04-22T13:00:36.324Z,26.14
2019-04-22T13:03:07.299Z,26.10
2019-04-22T13:05:37.572Z,26.11
2019-04-22T13:08:07.805Z,25.82
2019-04-22T13:10:45.772Z,25.33
2019-04-22T13:13:11.163Z,25.48
2019-04-22T13:15:41.370Z,25.59
2019-04-22T13:18:20.783Z,25.81
2019-04-22T13:20:44.299Z,25.85
2019-04-22T13:23:15.691Z,25.84
2019-04-22T13:25:47.143Z,26.11
2019-04-22T13:28:18.903Z,26.26
2019-04-22T13:30:50.917Z,26.47
2019-04-22T13:33:21.010Z,26.42
2019-04-22T13:35:52.131Z,26.13
2019-04-22T13:38:22.783Z,26.02
2019-04-22T13:41:12.496Z,26.09
2019-04-22T13:43:24.991Z,26.26
2019-04-22T13:45:56.050Z,26.48
2019-04-22T13:48:47.042Z,26.79
2019-04-22T13:54:29.997Z,26.46
2019-04-22T13:56:19.068Z,26.61
2019-04-22T13:58:45.874Z,26.61
2019-04-22T14:01:14.675Z,26.34
2019-04-22T14:04:04.816Z,26.76
2019-04-22T14:06:34.797Z,26.96
2019-04-22T14:09:07.467Z,26.38
2019-04-22T14:11:46.143Z,26.47
2019-04-22T14:14:09.225Z,26.48
2019-04-22T14:16:40.632Z,26.63
2019-04-22T14:19:11.907Z,26.52
2019-04-22T14:21:44.257Z,26.54
2019-04-22T14:24:14.336Z,26.98
2019-04-22T14:27:01.361Z,26.93
2019-04-22T14:29:17.500Z,27.07
2019-04-22T14:31:59.250Z,26.86
2019-04-22T14:34:20.901Z,26.75
2019-04-22T14:36:51.097Z,26.93
2019-04-22T14:39:21.987Z,27.18
2019-04-22T14:42:08.450Z,27.18
2019-04-22T14:45:16.906Z,27.10
2019-04-22T14:47:19.885Z,27.04
2019-04-22T14:49:48.188Z,27.00
2019-04-22T14:52:22.693Z,26.74
2019-04-22T14:54:41.292Z,26.91
2019-04-22T14:57:01.339Z,27.20
2019-04-22T14:59:32.566Z,27.00
2019-04-22T15:02:03.539Z,26.82
2019-04-22T15:04:33.440Z,26.84
2019-04-22T15:07:03.206Z,26.97
2019-04-22T15:09:34.187Z,26.77
2019-04-22T15:12:15.135Z,26.71
2019-04-22T15:14:35.647Z,26.62
2019-04-22T15:17:11.194Z,26.34
2019-04-22T15:19:43.799Z,26.17
2019-04-22T15:22:14.569Z,25.81
2019-04-22T15:24:45.024Z,25.59
2019-04-22T15:27:16.280Z,25.55
2019-04-22T15:29:47.250Z,25.54
2019-04-22T15:32:17.610Z,25.38
2019-04-22T15:34:48.879Z,25.23
2019-04-22T15:37:20.338Z,25.31
2019-04-22T15:39:50.176Z,25.30
2019-04-22T15:42:27.763Z,25.24
2019-04-22T15:44:51.721Z,25.22
2019-04-22T15:47:22.863Z,25.24
2019-04-22T15:49:53.969Z,25.14
2019-04-22T15:52:31.966Z,25.11
2019-04-22T15:54:56.363Z,25.04
2019-04-22T15:57:26.669Z,24.97
2019-04-22T16:00:13.131Z,24.95
2019-04-22T16:02:28.012Z,24.86
2019-04-22T16:04:58.857Z,24.84
2019-04-22T16:07:29.773Z,24.90
2019-04-22T16:09:59.825Z,24.83
2019-04-22T16:12:38.699Z,24.77
2019-04-22T16:15:03.188Z,24.73
2019-04-22T16:17:32.833Z,24.74
2019-04-22T16:20:03.690Z,24.64
2019-04-22T16:22:35.109Z,24.60
2019-04-22T16:25:25.015Z,24.68
2019-04-22T16:27:56.346Z,24.59
2019-04-22T16:30:27.688Z,24.48
2019-04-22T16:33:03.467Z,24.51
2019-04-22T16:35:34.954Z,24.48
2019-04-22T16:38:06.650Z,24.51
2019-04-22T16:40:36.808Z,24.49
2019-04-22T16:43:09.277Z,24.45
2019-04-22T16:45:38.161Z,24.40
2019-04-22T16:48:09.274Z,24.32
2019-04-22T16:50:42.841Z,24.24
2019-04-22T16:53:10.648Z,24.28
2019-04-22T16:55:41.044Z,24.28
2019-04-22T16:58:12.716Z,24.25
2019-04-22T17:00:43.128Z,24.29
2019-04-22T17:03:24.888Z,24.17
2019-04-22T17:06:09.830Z,24.18
2019-04-22T17:08:39.953Z,24.15
2019-04-22T17:11:09.953Z,24.07
2019-04-22T17:13:41.885Z,24.02
2019-04-22T17:16:11.948Z,23.97
2019-04-22T17:18:43.423Z,23.90
2019-04-22T17:21:14.662Z,23.86
2019-04-22T17:23:45.718Z,23.85
2019-04-22T17:26:16.741Z,23.82
2019-04-22T17:28:46.752Z,23.73
2019-04-22T17:31:16.596Z,23.64
2019-04-22T17:33:46.756Z,23.56
2019-04-22T17:36:18.206Z,23.47
2019-04-22T17:38:55.025Z,23.40
2019-04-22T17:41:30.262Z,23.36
2019-04-22T17:44:18.960Z,23.33
2019-04-22T17:46:40.270Z,23.24
2019-04-22T17:49:27.942Z,23.19
2019-04-22T17:52:10.802Z,23.10
2019-04-22T17:54:46.851Z,22.99
2019-04-22T17:57:09.972Z,22.98
2019-04-22T17:59:44.668Z,22.86
2019-04-22T18:02:16.741Z,22.89
2019-04-22T18:04:33.731Z,22.81
2019-04-22T18:07:24.834Z,22.72
2019-04-22T18:10:16.473Z,22.66
2019-04-22T18:12:34.017Z,22.59
2019-04-22T18:15:00.984Z,22.53
2019-04-22T18:17:30.572Z,22.46
2019-04-22T18:19:54.581Z,22.43
2019-04-22T18:22:21.842Z,22.38
2019-04-22T18:24:55.973Z,22.32
2019-04-22T18:30:00.017Z,22.17
2019-04-22T18:32:35.821Z,22.08
2019-04-22T18:35:07.257Z,21.99
2019-04-22T18:37:41.364Z,21.95
2019-04-22T18:40:11.705Z,21.92
2019-04-22T18:42:46.342Z,21.83
2019-04-22T18:45:29.674Z,21.85
2019-04-22T18:47:38.945Z,21.65
2019-04-22T18:50:22.015Z,21.67
2019-04-22T18:53:10.932Z,21.62
2019-04-22T18:55:35.205Z,21.57
2019-04-22T18:58:08.496Z,21.47
2019-04-22T19:00:41.844Z,21.40
2019-04-22T19:03:19.608Z,21.33
2019-04-22T19:06:11.791Z,21.30
2019-04-22T19:08:36.414Z,21.28
2019-04-22T19:11:20.980Z,21.18
2019-04-22T19:13:56.139Z,21.16
2019-04-22T19:16:25.784Z,21.10
2019-04-22T19:18:50.203Z,21.04
2019-04-22T19:21:14.955Z,21.04
2019-04-22T19:23:50.570Z,20.92
2019-04-22T19:26:32.421Z,20.90
2019-04-22T19:28:49.778Z,20.87
2019-04-22T19:31:24.664Z,20.78
2019-04-22T19:33:53.697Z,20.78
2019-04-22T19:36:26.116Z,20.68
2019-04-22T19:38:52.579Z,20.61
2019-04-22T19:41:29.214Z,20.58
2019-04-22T19:44:05.498Z,20.51
2019-04-22T19:46:28.679Z,20.50
2019-04-22T19:49:06.997Z,20.39
2019-04-22T19:51:57.295Z,20.33
2019-04-22T19:54:01.503Z,20.29
2019-04-22T19:56:28.231Z,20.25
2019-04-22T19:59:08.767Z,20.22
2019-04-22T20:01:54.179Z,20.15
2019-04-22T20:04:41.699Z,20.07
2019-04-22T20:07:08.399Z,20.04
2019-04-22T20:09:46.690Z,19.99
2019-04-22T20:12:15.140Z,19.87
2019-04-22T20:14:46.375Z,19.88
2019-04-22T20:17:19.834Z,19.86
2019-04-22T20:22:17.680Z,19.72
2019-04-22T20:24:44.792Z,19.74
2019-04-22T20:27:28.545Z,19.73
2019-04-22T20:30:13.218Z,19.67
2019-04-22T20:32:27.881Z,19.62
2019-04-22T20:35:02.972Z,19.56
2019-04-22T20:37:35.475Z,19.56
2019-04-22T20:40:00.502Z,19.47
2019-04-22T20:45:03.980Z,19.46
2019-04-22T20:47:30.633Z,19.42
2019-04-22T20:50:05.277Z,19.37
2019-04-22T20:52:50.519Z,19.28
2019-04-22T20:55:07.777Z,19.20
2019-04-22T20:57:48.450Z,19.24
2019-04-22T21:00:11.659Z,19.23
2019-04-22T21:02:37.640Z,19.21
2019-04-22T21:05:03.258Z,19.22
2019-04-22T21:07:52.967Z,19.16
2019-04-22T21:10:15.854Z,19.10
2019-04-22T21:12:39.995Z,19.04
2019-04-22T21:15:26.251Z,19.02
2019-04-22T21:17:53.793Z,18.93
2019-04-22T21:20:31.803Z,18.95
2019-04-22T21:22:56.259Z,18.91
2019-04-22T21:25:24.005Z,18.85
2019-04-22T21:28:04.862Z,18.75
2019-04-22T21:30:32.027Z,18.78
2019-04-22T21:32:58.238Z,18.73
2019-04-22T21:38:08.759Z,18.75
2019-04-22T21:40:39.498Z,18.70
2019-04-22T21:43:13.644Z,18.73
2019-04-22T21:45:37.628Z,18.64
2019-04-22T21:53:25.145Z,18.41
2019-04-22T21:56:03.957Z,18.34
2019-04-22T21:58:49.433Z,18.18
2019-04-22T22:01:29.137Z,18.19
2019-04-22T22:03:55.153Z,18.13
2019-04-22T22:06:16.617Z,18.05
2019-04-22T22:08:56.866Z,18.00
2019-04-22T22:11:26.054Z,17.90
2019-04-22T22:13:58.766Z,17.82
2019-04-22T22:16:23.352Z,17.93
2019-04-22T22:19:04.292Z,17.96
2019-04-22T22:21:43.901Z,17.90
2019-04-22T22:24:10.080Z,17.81
2019-04-22T22:26:40.702Z,17.74
2019-04-22T22:29:09.767Z,17.75
2019-04-22T22:31:40.243Z,17.66
2019-04-22T22:34:13.623Z,17.62
2019-04-22T22:36:36.868Z,17.57
2019-04-22T22:39:07.629Z,17.51
2019-04-22T22:41:23.972Z,17.50
2019-04-22T22:44:03.239Z,17.31
2019-04-22T22:46:34.173Z,17.33
2019-04-22T22:49:22.895Z,17.32
2019-04-22T22:52:11.691Z,17.36
2019-04-22T22:54:26.948Z,17.30
2019-04-22T22:59:30.006Z,17.09
2019-04-22T23:01:54.395Z,17.01
2019-04-22T23:04:37.273Z,16.92
2019-04-22T23:07:09.340Z,16.81
2019-04-22T23:09:30.712Z,16.76
2019-04-22T23:14:31.126Z,16.71
2019-04-22T23:16:52.875Z,16.65
2019-04-22T23:19:15.886Z,16.64
2019-04-22T23:21:49.470Z,16.63
2019-04-22T23:24:58.155Z,16.61
2019-04-22T23:27:34.591Z,16.51
2019-04-22T23:30:08.892Z,16.51
2019-04-22T23:32:42.651Z,16.47
2019-04-22T23:35:29.299Z,16.46
2019-04-22T23:37:59.613Z,16.42
2019-04-22T23:40:34.384Z,16.40
2019-04-22T23:43:09.421Z,16.30
2019-04-22T23:45:43.325Z,16.27
2019-04-22T23:48:05.841Z,16.21
2019-04-22T23:50:37.764Z,16.15
2019-04-22T23:53:31.626Z,16.11
2019-04-22T23:55:51.203Z,16.18
2019-04-22T23:58:34.950Z,16.11
